Rome City, Indiana
Current Conditions -  °F | °C
As of 7:35 AM on Saturday 25 Oct 2014 (Local Time) from KANQ Reporting Station
Overcast Overcast  
Wind Chill: 55°   Ceiling: 2100
Heat Index: 55°   Visibility: 10mi
Dew Point: 48°   Wind: 6mph
Humidity: 77%   Direction: 280°W
Pressure: 29.9"   Gusts: NA
Location:  41.5°N, 85.38°W
Report Text: KANQ 251135Z AUTO 28005KT 10SM BKN021 OVC042 13/09 A2990 RMK
Loading
Personal Weather Stations






























Interactive Weather Map
Tropical Storm Tracking
New forecast layout! Learn more

10-Day Weather Forecast

Advertisements
Track Severe Weather on mobile